sensor_id;sensor_type;location;lat;lon;timestamp;P1;durP1;ratioP1;P2;durP2;ratioP2
35290;SDS011;21411;50.024;19.220;2023-08-07T00:01:32;4.30;;;3.90;;
35290;SDS011;21411;50.024;19.220;2023-08-07T00:03:59;4.60;;;4.20;;
35290;SDS011;21411;50.024;19.220;2023-08-07T00:06:25;4.30;;;4.00;;
35290;SDS011;21411;50.024;19.220;2023-08-07T00:08:52;4.10;;;3.80;;
35290;SDS011;21411;50.024;19.220;2023-08-07T00:11:18;4.80;;;3.90;;
35290;SDS011;21411;50.024;19.220;2023-08-07T00:13:45;3.80;;;3.50;;
35290;SDS011;21411;50.024;19.220;2023-08-07T00:16:11;4.80;;;4.00;;
35290;SDS011;21411;50.024;19.220;2023-08-07T00:18:38;4.50;;;4.10;;
35290;SDS011;21411;50.024;19.220;2023-08-07T00:21:05;4.20;;;3.90;;
35290;SDS011;21411;50.024;19.220;2023-08-07T00:23:31;6.30;;;4.20;;
35290;SDS011;21411;50.024;19.220;2023-08-07T00:25:58;4.20;;;3.80;;
35290;SDS011;21411;50.024;19.220;2023-08-07T00:28:24;4.00;;;3.70;;
35290;SDS011;21411;50.024;19.220;2023-08-07T00:30:51;4.40;;;4.00;;
35290;SDS011;21411;50.024;19.220;2023-08-07T00:33:18;4.00;;;3.60;;
35290;SDS011;21411;50.024;19.220;2023-08-07T00:35:44;4.30;;;4.00;;
35290;SDS011;21411;50.024;19.220;2023-08-07T00:38:11;4.20;;;3.90;;
35290;SDS011;21411;50.024;19.220;2023-08-07T00:40:38;4.90;;;4.00;;
35290;SDS011;21411;50.024;19.220;2023-08-07T00:43:05;6.10;;;4.00;;
35290;SDS011;21411;50.024;19.220;2023-08-07T00:45:42;5.30;;;4.20;;
35290;SDS011;21411;50.024;19.220;2023-08-07T00:48:11;4.50;;;4.00;;
35290;SDS011;21411;50.024;19.220;2023-08-07T00:50:39;4.30;;;4.00;;
35290;SDS011;21411;50.024;19.220;2023-08-07T00:53:08;4.80;;;4.40;;
35290;SDS011;21411;50.024;19.220;2023-08-07T00:55:35;4.20;;;3.80;;
35290;SDS011;21411;50.024;19.220;2023-08-07T00:58:02;4.10;;;3.70;;
35290;SDS011;21411;50.024;19.220;2023-08-07T01:00:29;5.10;;;4.70;;
35290;SDS011;21411;50.024;19.220;2023-08-07T01:02:56;4.30;;;3.90;;
35290;SDS011;21411;50.024;19.220;2023-08-07T01:05:26;4.60;;;4.20;;
35290;SDS011;21411;50.024;19.220;2023-08-07T01:07:53;4.90;;;4.40;;
35290;SDS011;21411;50.024;19.220;2023-08-07T01:13:05;5.60;;;4.30;;
35290;SDS011;21411;50.024;19.220;2023-08-07T01:15:40;4.60;;;4.10;;
35290;SDS011;21411;50.024;19.220;2023-08-07T01:18:07;4.50;;;4.10;;
35290;SDS011;21411;50.024;19.220;2023-08-07T01:20:34;4.90;;;3.90;;
35290;SDS011;21411;50.024;19.220;2023-08-07T01:23:01;4.50;;;4.10;;
35290;SDS011;21411;50.024;19.220;2023-08-07T01:25:27;4.30;;;4.00;;
35290;SDS011;21411;50.024;19.220;2023-08-07T01:30:51;4.20;;;3.90;;
35290;SDS011;21411;50.024;19.220;2023-08-07T01:33:27;4.50;;;4.20;;
35290;SDS011;21411;50.024;19.220;2023-08-07T01:35:58;4.60;;;4.30;;
35290;SDS011;21411;50.024;19.220;2023-08-07T01:38:29;4.10;;;3.80;;
35290;SDS011;21411;50.024;19.220;2023-08-07T01:40:56;4.00;;;3.70;;
35290;SDS011;21411;50.024;19.220;2023-08-07T01:43:24;4.40;;;4.00;;
35290;SDS011;21411;50.024;19.220;2023-08-07T01:45:51;4.80;;;4.40;;
35290;SDS011;21411;50.024;19.220;2023-08-07T01:48:17;4.30;;;4.00;;
35290;SDS011;21411;50.024;19.220;2023-08-07T01:50:44;4.00;;;3.80;;
35290;SDS011;21411;50.024;19.220;2023-08-07T01:53:11;4.00;;;3.70;;
35290;SDS011;21411;50.024;19.220;2023-08-07T01:55:37;3.90;;;3.60;;
35290;SDS011;21411;50.024;19.220;2023-08-07T01:58:04;3.20;;;3.00;;
35290;SDS011;21411;50.024;19.220;2023-08-07T02:00:34;3.80;;;3.50;;
35290;SDS011;21411;50.024;19.220;2023-08-07T02:03:00;4.90;;;3.30;;
35290;SDS011;21411;50.024;19.220;2023-08-07T02:05:27;3.40;;;3.20;;
35290;SDS011;21411;50.024;19.220;2023-08-07T02:07:53;3.50;;;3.20;;
35290;SDS011;21411;50.024;19.220;2023-08-07T02:10:22;4.70;;;3.50;;
35290;SDS011;21411;50.024;19.220;2023-08-07T02:12:49;3.70;;;3.40;;
35290;SDS011;21411;50.024;19.220;2023-08-07T02:15:16;3.60;;;3.40;;
35290;SDS011;21411;50.024;19.220;2023-08-07T02:17:43;3.90;;;3.60;;
35290;SDS011;21411;50.024;19.220;2023-08-07T02:20:09;3.50;;;3.30;;
35290;SDS011;21411;50.024;19.220;2023-08-07T02:22:36;3.50;;;3.20;;
35290;SDS011;21411;50.024;19.220;2023-08-07T02:25:03;4.40;;;3.20;;
35290;SDS011;21411;50.024;19.220;2023-08-07T02:27:30;3.90;;;3.20;;
35290;SDS011;21411;50.024;19.220;2023-08-07T02:29:57;3.50;;;3.10;;
35290;SDS011;21411;50.024;19.220;2023-08-07T02:32:23;4.00;;;3.50;;
35290;SDS011;21411;50.024;19.220;2023-08-07T02:34:50;4.00;;;3.60;;
35290;SDS011;21411;50.024;19.220;2023-08-07T02:37:17;3.20;;;3.00;;
35290;SDS011;21411;50.024;19.220;2023-08-07T02:39:43;3.50;;;3.20;;
35290;SDS011;21411;50.024;19.220;2023-08-07T02:42:10;3.70;;;3.50;;
35290;SDS011;21411;50.024;19.220;2023-08-07T02:44:36;3.50;;;3.20;;
35290;SDS011;21411;50.024;19.220;2023-08-07T02:47:03;3.40;;;3.10;;
35290;SDS011;21411;50.024;19.220;2023-08-07T02:49:30;4.30;;;3.30;;
35290;SDS011;21411;50.024;19.220;2023-08-07T02:51:57;4.90;;;3.50;;
35290;SDS011;21411;50.024;19.220;2023-08-07T02:54:23;4.00;;;3.50;;
35290;SDS011;21411;50.024;19.220;2023-08-07T02:56:50;4.20;;;3.40;;
35290;SDS011;21411;50.024;19.220;2023-08-07T02:59:17;4.80;;;3.50;;
35290;SDS011;21411;50.024;19.220;2023-08-07T03:01:44;6.30;;;4.40;;
35290;SDS011;21411;50.024;19.220;2023-08-07T03:04:10;3.50;;;3.10;;
35290;SDS011;21411;50.024;19.220;2023-08-07T03:06:37;3.50;;;3.20;;
35290;SDS011;21411;50.024;19.220;2023-08-07T03:09:03;3.30;;;3.00;;
35290;SDS011;21411;50.024;19.220;2023-08-07T03:11:30;3.10;;;2.90;;
35290;SDS011;21411;50.024;19.220;2023-08-07T03:13:57;3.80;;;3.00;;
35290;SDS011;21411;50.024;19.220;2023-08-07T03:16:23;3.60;;;3.30;;
35290;SDS011;21411;50.024;19.220;2023-08-07T03:18:50;3.10;;;2.90;;
35290;SDS011;21411;50.024;19.220;2023-08-07T03:21:17;3.00;;;2.80;;
35290;SDS011;21411;50.024;19.220;2023-08-07T03:23:44;2.90;;;2.70;;
35290;SDS011;21411;50.024;19.220;2023-08-07T03:26:11;3.90;;;3.10;;
35290;SDS011;21411;50.024;19.220;2023-08-07T03:28:39;3.10;;;2.90;;
35290;SDS011;21411;50.024;19.220;2023-08-07T03:31:06;2.90;;;2.50;;
35290;SDS011;21411;50.024;19.220;2023-08-07T03:33:32;2.70;;;2.50;;
35290;SDS011;21411;50.024;19.220;2023-08-07T03:35:59;2.70;;;2.50;;
35290;SDS011;21411;50.024;19.220;2023-08-07T03:38:25;2.90;;;2.10;;
35290;SDS011;21411;50.024;19.220;2023-08-07T03:40:52;2.40;;;2.20;;
35290;SDS011;21411;50.024;19.220;2023-08-07T03:43:18;2.30;;;2.10;;
35290;SDS011;21411;50.024;19.220;2023-08-07T03:45:45;2.80;;;2.10;;
35290;SDS011;21411;50.024;19.220;2023-08-07T03:48:11;2.30;;;2.20;;
35290;SDS011;21411;50.024;19.220;2023-08-07T03:50:38;2.20;;;2.10;;
35290;SDS011;21411;50.024;19.220;2023-08-07T03:53:05;2.60;;;2.00;;
35290;SDS011;21411;50.024;19.220;2023-08-07T03:55:33;1.70;;;1.60;;
35290;SDS011;21411;50.024;19.220;2023-08-07T03:58:01;2.10;;;1.60;;
35290;SDS011;21411;50.024;19.220;2023-08-07T04:00:28;1.60;;;1.40;;
35290;SDS011;21411;50.024;19.220;2023-08-07T04:02:55;1.50;;;1.40;;
35290;SDS011;21411;50.024;19.220;2023-08-07T04:05:22;1.40;;;1.40;;
35290;SDS011;21411;50.024;19.220;2023-08-07T04:07:49;2.00;;;1.60;;
35290;SDS011;21411;50.024;19.220;2023-08-07T04:10:15;1.50;;;1.40;;
35290;SDS011;21411;50.024;19.220;2023-08-07T04:12:42;1.40;;;1.30;;
35290;SDS011;21411;50.024;19.220;2023-08-07T04:15:08;1.30;;;1.20;;
35290;SDS011;21411;50.024;19.220;2023-08-07T04:17:36;1.20;;;1.20;;
35290;SDS011;21411;50.024;19.220;2023-08-07T04:20:02;1.10;;;1.00;;
35290;SDS011;21411;50.024;19.220;2023-08-07T04:22:30;0.90;;;0.90;;
35290;SDS011;21411;50.024;19.220;2023-08-07T04:24:56;1.30;;;1.10;;
35290;SDS011;21411;50.024;19.220;2023-08-07T04:27:23;4.00;;;1.10;;
35290;SDS011;21411;50.024;19.220;2023-08-07T04:29:49;1.90;;;0.90;;
35290;SDS011;21411;50.024;19.220;2023-08-07T04:32:16;1.00;;;0.90;;
35290;SDS011;21411;50.024;19.220;2023-08-07T04:34:43;3.00;;;0.90;;
35290;SDS011;21411;50.024;19.220;2023-08-07T04:37:09;1.20;;;0.90;;
35290;SDS011;21411;50.024;19.220;2023-08-07T04:39:36;1.10;;;0.90;;
35290;SDS011;21411;50.024;19.220;2023-08-07T04:42:03;0.60;;;0.60;;
35290;SDS011;21411;50.024;19.220;2023-08-07T04:44:29;1.50;;;0.90;;
35290;SDS011;21411;50.024;19.220;2023-08-07T04:46:56;1.10;;;0.50;;
35290;SDS011;21411;50.024;19.220;2023-08-07T04:49:22;0.70;;;0.70;;
35290;SDS011;21411;50.024;19.220;2023-08-07T04:51:49;1.20;;;0.50;;
35290;SDS011;21411;50.024;19.220;2023-08-07T04:54:15;0.40;;;0.40;;
35290;SDS011;21411;50.024;19.220;2023-08-07T04:56:42;0.40;;;0.40;;
35290;SDS011;21411;50.024;19.220;2023-08-07T04:59:10;1.30;;;0.30;;
35290;SDS011;21411;50.024;19.220;2023-08-07T05:01:37;2.50;;;0.40;;
35290;SDS011;21411;50.024;19.220;2023-08-07T05:04:04;1.60;;;0.50;;
35290;SDS011;21411;50.024;19.220;2023-08-07T05:06:31;0.70;;;0.40;;
35290;SDS011;21411;50.024;19.220;2023-08-07T05:08:58;2.10;;;0.40;;
35290;SDS011;21411;50.024;19.220;2023-08-07T05:11:24;0.90;;;0.40;;
35290;SDS011;21411;50.024;19.220;2023-08-07T05:13:51;0.40;;;0.20;;
35290;SDS011;21411;50.024;19.220;2023-08-07T05:16:17;0.40;;;0.30;;
35290;SDS011;21411;50.024;19.220;2023-08-07T05:18:45;3.00;;;0.30;;
35290;SDS011;21411;50.024;19.220;2023-08-07T05:21:11;1.00;;;0.30;;
35290;SDS011;21411;50.024;19.220;2023-08-07T05:23:38;0.20;;;0.20;;
35290;SDS011;21411;50.024;19.220;2023-08-07T05:26:05;1.00;;;0.20;;
35290;SDS011;21411;50.024;19.220;2023-08-07T05:28:31;3.50;;;0.30;;
35290;SDS011;21411;50.024;19.220;2023-08-07T05:30:58;0.20;;;0.20;;
35290;SDS011;21411;50.024;19.220;2023-08-07T05:33:24;0.20;;;0.20;;
35290;SDS011;21411;50.024;19.220;2023-08-07T05:35:51;0.30;;;0.20;;
35290;SDS011;21411;50.024;19.220;2023-08-07T05:38:18;0.10;;;0.10;;
35290;SDS011;21411;50.024;19.220;2023-08-07T05:40:45;1.80;;;0.20;;
35290;SDS011;21411;50.024;19.220;2023-08-07T05:43:11;0.80;;;0.20;;
35290;SDS011;21411;50.024;19.220;2023-08-07T05:45:38;0.90;;;0.30;;
35290;SDS011;21411;50.024;19.220;2023-08-07T05:48:06;0.60;;;0.20;;
35290;SDS011;21411;50.024;19.220;2023-08-07T05:50:32;0.40;;;0.10;;
35290;SDS011;21411;50.024;19.220;2023-08-07T05:52:59;1.70;;;0.20;;
35290;SDS011;21411;50.024;19.220;2023-08-07T05:55:26;0.30;;;0.10;;
35290;SDS011;21411;50.024;19.220;2023-08-07T05:57:52;0.70;;;0.20;;
35290;SDS011;21411;50.024;19.220;2023-08-07T06:00:19;0.10;;;0.10;;
35290;SDS011;21411;50.024;19.220;2023-08-07T06:02:46;1.40;;;0.30;;
35290;SDS011;21411;50.024;19.220;2023-08-07T06:05:12;0.30;;;0.20;;
35290;SDS011;21411;50.024;19.220;2023-08-07T06:07:40;1.10;;;0.10;;
35290;SDS011;21411;50.024;19.220;2023-08-07T06:10:07;0.70;;;0.20;;
35290;SDS011;21411;50.024;19.220;2023-08-07T06:12:34;0.40;;;0.40;;
35290;SDS011;21411;50.024;19.220;2023-08-07T06:15:00;0.30;;;0.30;;
35290;SDS011;21411;50.024;19.220;2023-08-07T06:17:27;0.40;;;0.20;;
35290;SDS011;21411;50.024;19.220;2023-08-07T06:19:54;0.20;;;0.20;;
35290;SDS011;21411;50.024;19.220;2023-08-07T06:22:20;0.80;;;0.10;;
35290;SDS011;21411;50.024;19.220;2023-08-07T06:24:47;0.60;;;0.20;;
35290;SDS011;21411;50.024;19.220;2023-08-07T06:27:13;0.20;;;0.20;;
35290;SDS011;21411;50.024;19.220;2023-08-07T06:29:40;0.60;;;0.20;;
35290;SDS011;21411;50.024;19.220;2023-08-07T06:32:07;2.80;;;0.30;;
35290;SDS011;21411;50.024;19.220;2023-08-07T06:34:35;2.30;;;0.30;;
35290;SDS011;21411;50.024;19.220;2023-08-07T06:37:01;0.30;;;0.30;;
35290;SDS011;21411;50.024;19.220;2023-08-07T06:39:28;0.20;;;0.10;;
35290;SDS011;21411;50.024;19.220;2023-08-07T06:41:55;0.20;;;0.20;;
35290;SDS011;21411;50.024;19.220;2023-08-07T06:44:22;0.30;;;0.30;;
35290;SDS011;21411;50.024;19.220;2023-08-07T06:46:49;2.70;;;0.20;;
35290;SDS011;21411;50.024;19.220;2023-08-07T06:49:15;0.20;;;0.20;;
35290;SDS011;21411;50.024;19.220;2023-08-07T06:51:42;1.40;;;0.30;;
35290;SDS011;21411;50.024;19.220;2023-08-07T06:54:08;0.40;;;0.20;;
35290;SDS011;21411;50.024;19.220;2023-08-07T06:56:35;0.20;;;0.20;;
35290;SDS011;21411;50.024;19.220;2023-08-07T06:59:04;0.30;;;0.30;;
35290;SDS011;21411;50.024;19.220;2023-08-07T07:01:30;0.30;;;0.30;;
35290;SDS011;21411;50.024;19.220;2023-08-07T07:03:58;2.30;;;0.10;;
35290;SDS011;21411;50.024;19.220;2023-08-07T07:06:24;0.90;;;0.20;;
35290;SDS011;21411;50.024;19.220;2023-08-07T07:08:54;0.30;;;0.10;;
35290;SDS011;21411;50.024;19.220;2023-08-07T07:11:21;0.30;;;0.30;;
35290;SDS011;21411;50.024;19.220;2023-08-07T07:13:50;0.20;;;0.20;;
35290;SDS011;21411;50.024;19.220;2023-08-07T07:16:18;0.30;;;0.20;;
35290;SDS011;21411;50.024;19.220;2023-08-07T07:18:49;0.50;;;0.30;;
35290;SDS011;21411;50.024;19.220;2023-08-07T07:21:16;0.60;;;0.20;;
35290;SDS011;21411;50.024;19.220;2023-08-07T07:23:43;0.20;;;0.10;;
35290;SDS011;21411;50.024;19.220;2023-08-07T07:26:10;0.80;;;0.30;;
35290;SDS011;21411;50.024;19.220;2023-08-07T07:28:36;6.20;;;0.40;;
35290;SDS011;21411;50.024;19.220;2023-08-07T07:31:05;1.10;;;0.10;;
35290;SDS011;21411;50.024;19.220;2023-08-07T07:33:31;0.60;;;0.50;;
35290;SDS011;21411;50.024;19.220;2023-08-07T07:35:58;0.30;;;0.30;;
35290;SDS011;21411;50.024;19.220;2023-08-07T07:38:24;1.30;;;0.30;;
35290;SDS011;21411;50.024;19.220;2023-08-07T07:40:52;1.50;;;0.40;;
35290;SDS011;21411;50.024;19.220;2023-08-07T07:43:22;2.50;;;1.00;;
35290;SDS011;21411;50.024;19.220;2023-08-07T07:45:50;0.70;;;0.50;;
35290;SDS011;21411;50.024;19.220;2023-08-07T07:48:16;1.50;;;0.30;;
35290;SDS011;21411;50.024;19.220;2023-08-07T07:50:43;3.10;;;0.40;;
35290;SDS011;21411;50.024;19.220;2023-08-07T07:53:09;1.00;;;0.40;;
35290;SDS011;21411;50.024;19.220;2023-08-07T07:55:36;1.90;;;0.40;;
35290;SDS011;21411;50.024;19.220;2023-08-07T07:58:04;0.50;;;0.30;;
35290;SDS011;21411;50.024;19.220;2023-08-07T08:00:30;0.70;;;0.50;;
35290;SDS011;21411;50.024;19.220;2023-08-07T08:02:57;1.20;;;0.30;;
35290;SDS011;21411;50.024;19.220;2023-08-07T08:05:24;1.70;;;0.20;;
35290;SDS011;21411;50.024;19.220;2023-08-07T08:07:50;0.60;;;0.20;;
35290;SDS011;21411;50.024;19.220;2023-08-07T08:10:17;0.40;;;0.20;;
35290;SDS011;21411;50.024;19.220;2023-08-07T08:12:43;0.30;;;0.30;;
35290;SDS011;21411;50.024;19.220;2023-08-07T08:15:10;0.90;;;0.20;;
35290;SDS011;21411;50.024;19.220;2023-08-07T08:17:37;0.30;;;0.30;;
35290;SDS011;21411;50.024;19.220;2023-08-07T08:20:04;0.80;;;0.20;;
35290;SDS011;21411;50.024;19.220;2023-08-07T08:22:32;0.60;;;0.10;;
35290;SDS011;21411;50.024;19.220;2023-08-07T08:24:59;0.20;;;0.20;;
35290;SDS011;21411;50.024;19.220;2023-08-07T08:27:26;1.10;;;0.20;;
35290;SDS011;21411;50.024;19.220;2023-08-07T08:29:52;0.40;;;0.20;;
35290;SDS011;21411;50.024;19.220;2023-08-07T08:32:19;0.10;;;0.10;;
35290;SDS011;21411;50.024;19.220;2023-08-07T08:34:46;1.20;;;0.20;;
35290;SDS011;21411;50.024;19.220;2023-08-07T08:37:15;0.20;;;0.20;;
35290;SDS011;21411;50.024;19.220;2023-08-07T08:39:42;1.90;;;0.20;;
35290;SDS011;21411;50.024;19.220;2023-08-07T08:42:10;1.90;;;0.20;;
35290;SDS011;21411;50.024;19.220;2023-08-07T08:44:39;1.70;;;0.20;;
35290;SDS011;21411;50.024;19.220;2023-08-07T08:47:07;0.50;;;0.30;;
35290;SDS011;21411;50.024;19.220;2023-08-07T08:49:35;0.30;;;0.30;;
35290;SDS011;21411;50.024;19.220;2023-08-07T08:52:09;0.90;;;0.20;;
35290;SDS011;21411;50.024;19.220;2023-08-07T08:54:36;1.70;;;0.50;;
35290;SDS011;21411;50.024;19.220;2023-08-07T08:57:03;0.30;;;0.30;;
35290;SDS011;21411;50.024;19.220;2023-08-07T08:59:31;0.40;;;0.40;;
35290;SDS011;21411;50.024;19.220;2023-08-07T09:01:58;0.30;;;0.30;;
35290;SDS011;21411;50.024;19.220;2023-08-07T09:04:24;0.40;;;0.40;;
35290;SDS011;21411;50.024;19.220;2023-08-07T09:06:51;1.10;;;0.30;;
35290;SDS011;21411;50.024;19.220;2023-08-07T09:09:19;1.40;;;0.20;;
35290;SDS011;21411;50.024;19.220;2023-08-07T09:11:47;0.30;;;0.30;;
35290;SDS011;21411;50.024;19.220;2023-08-07T09:14:15;0.30;;;0.20;;
35290;SDS011;21411;50.024;19.220;2023-08-07T09:16:44;0.70;;;0.50;;
35290;SDS011;21411;50.024;19.220;2023-08-07T09:19:14;0.60;;;0.20;;
35290;SDS011;21411;50.024;19.220;2023-08-07T09:21:40;0.30;;;0.30;;
35290;SDS011;21411;50.024;19.220;2023-08-07T09:24:07;0.40;;;0.20;;
35290;SDS011;21411;50.024;19.220;2023-08-07T09:26:34;0.20;;;0.20;;
35290;SDS011;21411;50.024;19.220;2023-08-07T09:29:02;1.30;;;0.30;;
35290;SDS011;21411;50.024;19.220;2023-08-07T09:31:29;0.50;;;0.40;;
35290;SDS011;21411;50.024;19.220;2023-08-07T09:36:30;0.30;;;0.30;;
35290;SDS011;21411;50.024;19.220;2023-08-07T09:39:01;0.30;;;0.30;;
35290;SDS011;21411;50.024;19.220;2023-08-07T09:41:30;0.30;;;0.30;;
35290;SDS011;21411;50.024;19.220;2023-08-07T09:43:57;0.30;;;0.30;;
35290;SDS011;21411;50.024;19.220;2023-08-07T09:46:27;0.40;;;0.30;;
35290;SDS011;21411;50.024;19.220;2023-08-07T09:48:57;0.80;;;0.40;;
35290;SDS011;21411;50.024;19.220;2023-08-07T09:51:24;0.70;;;0.60;;
35290;SDS011;21411;50.024;19.220;2023-08-07T09:53:50;0.40;;;0.40;;
35290;SDS011;21411;50.024;19.220;2023-08-07T09:56:17;0.70;;;0.70;;
35290;SDS011;21411;50.024;19.220;2023-08-07T09:58:47;0.50;;;0.50;;
35290;SDS011;21411;50.024;19.220;2023-08-07T10:01:15;0.40;;;0.40;;
35290;SDS011;21411;50.024;19.220;2023-08-07T10:03:42;0.80;;;0.40;;
35290;SDS011;21411;50.024;19.220;2023-08-07T10:06:09;0.50;;;0.30;;
35290;SDS011;21411;50.024;19.220;2023-08-07T10:08:36;0.90;;;0.40;;
35290;SDS011;21411;50.024;19.220;2023-08-07T10:11:04;0.30;;;0.30;;
35290;SDS011;21411;50.024;19.220;2023-08-07T10:13:31;0.60;;;0.30;;
35290;SDS011;21411;50.024;19.220;2023-08-07T10:15:58;1.00;;;0.50;;
35290;SDS011;21411;50.024;19.220;2023-08-07T10:18:25;1.00;;;0.50;;
35290;SDS011;21411;50.024;19.220;2023-08-07T10:20:51;0.60;;;0.50;;
35290;SDS011;21411;50.024;19.220;2023-08-07T10:23:18;0.50;;;0.50;;
35290;SDS011;21411;50.024;19.220;2023-08-07T10:25:47;0.80;;;0.60;;
35290;SDS011;21411;50.024;19.220;2023-08-07T10:28:16;0.30;;;0.30;;
35290;SDS011;21411;50.024;19.220;2023-08-07T10:30:45;0.40;;;0.40;;
35290;SDS011;21411;50.024;19.220;2023-08-07T10:33:12;1.10;;;0.70;;
35290;SDS011;21411;50.024;19.220;2023-08-07T10:35:44;0.70;;;0.70;;
35290;SDS011;21411;50.024;19.220;2023-08-07T10:38:13;1.20;;;1.10;;
35290;SDS011;21411;50.024;19.220;2023-08-07T10:43:45;0.30;;;0.30;;
35290;SDS011;21411;50.024;19.220;2023-08-07T10:46:14;0.60;;;0.60;;
35290;SDS011;21411;50.024;19.220;2023-08-07T10:48:42;0.60;;;0.60;;
35290;SDS011;21411;50.024;19.220;2023-08-07T10:51:13;0.40;;;0.40;;
35290;SDS011;21411;50.024;19.220;2023-08-07T10:53:45;0.70;;;0.70;;
35290;SDS011;21411;50.024;19.220;2023-08-07T10:58:56;0.90;;;0.40;;
35290;SDS011;21411;50.024;19.220;2023-08-07T11:04:12;0.60;;;0.50;;
35290;SDS011;21411;50.024;19.220;2023-08-07T11:06:40;0.50;;;0.50;;
35290;SDS011;21411;50.024;19.220;2023-08-07T11:09:09;0.60;;;0.40;;
35290;SDS011;21411;50.024;19.220;2023-08-07T11:11:40;0.40;;;0.40;;
35290;SDS011;21411;50.024;19.220;2023-08-07T11:14:09;1.00;;;0.60;;
35290;SDS011;21411;50.024;19.220;2023-08-07T11:16:37;0.80;;;0.80;;
35290;SDS011;21411;50.024;19.220;2023-08-07T11:19:05;1.50;;;1.00;;
35290;SDS011;21411;50.024;19.220;2023-08-07T11:21:32;2.60;;;2.40;;
35290;SDS011;21411;50.024;19.220;2023-08-07T11:23:59;8.10;;;6.20;;
35290;SDS011;21411;50.024;19.220;2023-08-07T11:26:26;2.60;;;1.50;;
35290;SDS011;21411;50.024;19.220;2023-08-07T11:28:54;1.00;;;0.70;;
35290;SDS011;21411;50.024;19.220;2023-08-07T11:31:22;0.60;;;0.40;;
35290;SDS011;21411;50.024;19.220;2023-08-07T11:33:57;0.40;;;0.40;;
35290;SDS011;21411;50.024;19.220;2023-08-07T11:36:24;2.90;;;1.10;;
35290;SDS011;21411;50.024;19.220;2023-08-07T11:38:51;1.70;;;1.10;;
35290;SDS011;21411;50.024;19.220;2023-08-07T11:41:18;1.10;;;1.00;;
35290;SDS011;21411;50.024;19.220;2023-08-07T11:43:45;1.70;;;1.10;;
35290;SDS011;21411;50.024;19.220;2023-08-07T11:46:13;1.70;;;1.60;;
35290;SDS011;21411;50.024;19.220;2023-08-07T11:48:41;3.00;;;1.40;;
35290;SDS011;21411;50.024;19.220;2023-08-07T11:51:09;2.20;;;1.60;;
35290;SDS011;21411;50.024;19.220;2023-08-07T11:53:36;3.20;;;1.60;;
35290;SDS011;21411;50.024;19.220;2023-08-07T11:56:07;2.20;;;1.60;;
35290;SDS011;21411;50.024;19.220;2023-08-07T11:58:36;2.00;;;1.40;;
35290;SDS011;21411;50.024;19.220;2023-08-07T12:01:05;2.20;;;1.70;;
35290;SDS011;21411;50.024;19.220;2023-08-07T12:03:34;1.80;;;1.70;;
35290;SDS011;21411;50.024;19.220;2023-08-07T12:06:05;1.50;;;1.40;;
35290;SDS011;21411;50.024;19.220;2023-08-07T12:08:33;1.90;;;1.60;;
35290;SDS011;21411;50.024;19.220;2023-08-07T12:11:01;2.20;;;2.10;;
35290;SDS011;21411;50.024;19.220;2023-08-07T12:13:31;2.00;;;1.80;;
35290;SDS011;21411;50.024;19.220;2023-08-07T12:16:01;2.10;;;1.70;;
35290;SDS011;21411;50.024;19.220;2023-08-07T12:18:30;4.60;;;2.00;;
35290;SDS011;21411;50.024;19.220;2023-08-07T12:21:04;3.00;;;1.90;;
35290;SDS011;21411;50.024;19.220;2023-08-07T12:23:33;3.30;;;2.10;;
35290;SDS011;21411;50.024;19.220;2023-08-07T12:26:01;2.60;;;2.20;;
35290;SDS011;21411;50.024;19.220;2023-08-07T12:28:28;2.50;;;2.10;;
35290;SDS011;21411;50.024;19.220;2023-08-07T12:30:56;1.90;;;1.70;;
35290;SDS011;21411;50.024;19.220;2023-08-07T12:33:23;1.90;;;1.60;;
35290;SDS011;21411;50.024;19.220;2023-08-07T12:35:50;2.10;;;1.90;;
35290;SDS011;21411;50.024;19.220;2023-08-07T12:38:17;1.70;;;1.60;;
35290;SDS011;21411;50.024;19.220;2023-08-07T12:40:45;3.60;;;2.60;;
35290;SDS011;21411;50.024;19.220;2023-08-07T12:43:12;2.90;;;2.40;;
35290;SDS011;21411;50.024;19.220;2023-08-07T12:45:39;2.10;;;1.80;;
35290;SDS011;21411;50.024;19.220;2023-08-07T12:48:05;4.10;;;2.70;;
35290;SDS011;21411;50.024;19.220;2023-08-07T12:50:33;4.00;;;3.20;;
35290;SDS011;21411;50.024;19.220;2023-08-07T12:53:00;3.30;;;2.70;;
35290;SDS011;21411;50.024;19.220;2023-08-07T12:55:27;3.30;;;2.50;;
35290;SDS011;21411;50.024;19.220;2023-08-07T12:57:55;3.80;;;2.80;;
35290;SDS011;21411;50.024;19.220;2023-08-07T13:00:22;2.90;;;2.50;;
35290;SDS011;21411;50.024;19.220;2023-08-07T13:02:50;2.90;;;2.20;;
35290;SDS011;21411;50.024;19.220;2023-08-07T13:05:17;4.10;;;2.60;;
35290;SDS011;21411;50.024;19.220;2023-08-07T13:07:45;3.20;;;2.90;;
35290;SDS011;21411;50.024;19.220;2023-08-07T13:10:13;2.20;;;2.00;;
35290;SDS011;21411;50.024;19.220;2023-08-07T13:12:43;3.20;;;2.20;;
35290;SDS011;21411;50.024;19.220;2023-08-07T13:15:13;2.70;;;2.50;;
35290;SDS011;21411;50.024;19.220;2023-08-07T13:17:41;3.70;;;2.90;;
35290;SDS011;21411;50.024;19.220;2023-08-07T13:20:09;4.20;;;3.10;;
35290;SDS011;21411;50.024;19.220;2023-08-07T13:25:06;4.40;;;2.70;;
35290;SDS011;21411;50.024;19.220;2023-08-07T13:27:34;3.50;;;3.10;;
35290;SDS011;21411;50.024;19.220;2023-08-07T13:30:04;3.30;;;2.90;;
35290;SDS011;21411;50.024;19.220;2023-08-07T13:32:31;3.20;;;2.90;;
35290;SDS011;21411;50.024;19.220;2023-08-07T13:35:01;4.20;;;2.40;;
35290;SDS011;21411;50.024;19.220;2023-08-07T13:37:28;3.50;;;3.00;;
35290;SDS011;21411;50.024;19.220;2023-08-07T13:39:55;3.10;;;2.80;;
35290;SDS011;21411;50.024;19.220;2023-08-07T13:42:25;4.40;;;2.80;;
35290;SDS011;21411;50.024;19.220;2023-08-07T13:44:54;3.50;;;3.10;;
35290;SDS011;21411;50.024;19.220;2023-08-07T13:47:22;9.50;;;4.90;;
35290;SDS011;21411;50.024;19.220;2023-08-07T13:49:52;5.30;;;3.80;;
35290;SDS011;21411;50.024;19.220;2023-08-07T13:52:20;3.40;;;2.50;;
35290;SDS011;21411;50.024;19.220;2023-08-07T13:54:46;2.70;;;2.20;;
35290;SDS011;21411;50.024;19.220;2023-08-07T13:57:13;2.00;;;1.80;;
35290;SDS011;21411;50.024;19.220;2023-08-07T13:59:39;2.50;;;2.10;;
35290;SDS011;21411;50.024;19.220;2023-08-07T14:02:06;2.50;;;2.00;;
35290;SDS011;21411;50.024;19.220;2023-08-07T14:04:33;3.20;;;2.20;;
35290;SDS011;21411;50.024;19.220;2023-08-07T14:07:01;2.50;;;1.90;;
35290;SDS011;21411;50.024;19.220;2023-08-07T14:09:28;2.80;;;2.00;;
35290;SDS011;21411;50.024;19.220;2023-08-07T14:11:55;2.30;;;2.10;;
35290;SDS011;21411;50.024;19.220;2023-08-07T14:14:23;2.50;;;2.30;;
35290;SDS011;21411;50.024;19.220;2023-08-07T14:16:49;3.10;;;2.10;;
35290;SDS011;21411;50.024;19.220;2023-08-07T14:19:16;3.40;;;2.50;;
35290;SDS011;21411;50.024;19.220;2023-08-07T14:21:42;3.80;;;2.30;;
35290;SDS011;21411;50.024;19.220;2023-08-07T14:24:09;2.50;;;2.20;;
35290;SDS011;21411;50.024;19.220;2023-08-07T14:26:35;2.60;;;2.40;;
35290;SDS011;21411;50.024;19.220;2023-08-07T14:29:02;3.60;;;3.00;;
35290;SDS011;21411;50.024;19.220;2023-08-07T14:31:29;3.80;;;2.50;;
35290;SDS011;21411;50.024;19.220;2023-08-07T14:33:55;6.40;;;3.20;;
35290;SDS011;21411;50.024;19.220;2023-08-07T14:36:22;3.10;;;2.80;;
35290;SDS011;21411;50.024;19.220;2023-08-07T14:38:49;4.50;;;2.90;;
35290;SDS011;21411;50.024;19.220;2023-08-07T14:41:16;2.70;;;2.50;;
35290;SDS011;21411;50.024;19.220;2023-08-07T14:43:43;4.60;;;4.20;;
35290;SDS011;21411;50.024;19.220;2023-08-07T14:46:10;2.70;;;2.50;;
35290;SDS011;21411;50.024;19.220;2023-08-07T14:48:36;2.30;;;1.90;;
35290;SDS011;21411;50.024;19.220;2023-08-07T14:51:03;2.90;;;2.20;;
35290;SDS011;21411;50.024;19.220;2023-08-07T14:53:30;5.10;;;4.60;;